OIMC  Sarakhs  Airport

Sarakhs, Iran

Add Bookmark
ICAO OIMC
IATA CKT
Type Airport
Status Operational
Latitude
36° 30' 4" N
36.501202
Longitude
61° 3' 53" E
61.064899
Local (GMT +4.5 ) UTC
May 6, 2016 03:41 pm May 6, 2016 11:11
Sunrise-Sunset Local UTC
Begin Civil Twilight 04:56 am 00:26
Sunrise 05:24 am 00:54
Sunset 07:19 pm 14:49
End Civil Twilight 07:47 pm 15:17
VFR
VFR
MVFR
MVFR
IFR
IFR
LIFR
LIFR
Unknown
Unavailable

Current Weather

METAR Observed VFR
OIMC 061000Z 16008KT CAVOK 36/11 Q1010 Fri, May 6, 2016 @ 10:00 UTC
(1 Hour, 11 Minutes ago)
Visual Flight Rules
Wind Visibility Conditions
160° at 8 knots (15 kph) 10 km or more
  • No significant weather
Temperatures Readings Precipitation
Current Temp
36°C
97°F
Dewpoint
11°C
52°F
Humidity 22%
Altimeter 29.82" Hg
Sea Level Pressure 1,010 mb
Field Elevation
288 m
945 ft
None Recorded
-
-

CheckWX.com is intended as a tool to help pilots better visualize weather data. It is not intended as a substitute for an official weather briefing obtained from a Flight Service Station. CheckWX.com does not meet the FAA requirements for an official pre-flight weather briefing. Therefore, it's important that pilots still call and obtain an official FSS pre-flight weather briefing.

© 2007-2016 CheckWX.com
11:11:44 UTC